sensor_id;sensor_type;location;lat;lon;timestamp;temperature;humidity
27671;DHT22;15077;49.704;9.908;2023-07-13T00:00:36;24.90;47.80
27671;DHT22;15077;49.704;9.908;2023-07-13T00:03:03;24.90;47.80
27671;DHT22;15077;49.704;9.908;2023-07-13T00:05:30;24.90;47.80
27671;DHT22;15077;49.704;9.908;2023-07-13T00:07:58;24.80;47.70
27671;DHT22;15077;49.704;9.908;2023-07-13T00:10:26;24.80;47.80
27671;DHT22;15077;49.704;9.908;2023-07-13T00:12:53;24.70;47.70
27671;DHT22;15077;49.704;9.908;2023-07-13T00:15:25;24.70;47.70
27671;DHT22;15077;49.704;9.908;2023-07-13T00:17:55;24.70;47.70
27671;DHT22;15077;49.704;9.908;2023-07-13T00:20:22;24.60;48.30
27671;DHT22;15077;49.704;9.908;2023-07-13T00:22:51;24.60;47.70
27671;DHT22;15077;49.704;9.908;2023-07-13T00:25:20;24.50;47.60
27671;DHT22;15077;49.704;9.908;2023-07-13T00:27:47;24.50;47.60
27671;DHT22;15077;49.704;9.908;2023-07-13T00:30:14;24.40;47.50
27671;DHT22;15077;49.704;9.908;2023-07-13T00:32:40;24.40;47.50
27671;DHT22;15077;49.704;9.908;2023-07-13T00:35:08;24.30;47.60
27671;DHT22;15077;49.704;9.908;2023-07-13T00:37:36;24.20;47.60
27671;DHT22;15077;49.704;9.908;2023-07-13T00:40:03;24.20;47.60
27671;DHT22;15077;49.704;9.908;2023-07-13T00:42:31;24.10;47.70
27671;DHT22;15077;49.704;9.908;2023-07-13T00:47:55;24.10;47.70
27671;DHT22;15077;49.704;9.908;2023-07-13T00:50:23;24.10;47.70
27671;DHT22;15077;49.704;9.908;2023-07-13T00:52:53;24.00;47.60
27671;DHT22;15077;49.704;9.908;2023-07-13T00:55:22;23.90;47.70
27671;DHT22;15077;49.704;9.908;2023-07-13T00:57:50;24.00;47.60
27671;DHT22;15077;49.704;9.908;2023-07-13T01:00:18;23.90;47.60
27671;DHT22;15077;49.704;9.908;2023-07-13T01:02:48;23.90;47.70
27671;DHT22;15077;49.704;9.908;2023-07-13T01:05:20;23.90;47.70
27671;DHT22;15077;49.704;9.908;2023-07-13T01:07:50;23.80;47.70
27671;DHT22;15077;49.704;9.908;2023-07-13T01:10:21;23.80;47.80
27671;DHT22;15077;49.704;9.908;2023-07-13T01:12:48;23.80;47.90
27671;DHT22;15077;49.704;9.908;2023-07-13T01:15:40;23.70;47.80
27671;DHT22;15077;49.704;9.908;2023-07-13T01:18:17;23.70;47.60
27671;DHT22;15077;49.704;9.908;2023-07-13T01:20:58;23.70;47.70
27671;DHT22;15077;49.704;9.908;2023-07-13T01:23:28;23.70;47.70
27671;DHT22;15077;49.704;9.908;2023-07-13T01:25:57;23.60;47.70
27671;DHT22;15077;49.704;9.908;2023-07-13T01:28:26;23.60;47.80
27671;DHT22;15077;49.704;9.908;2023-07-13T01:30:55;23.50;47.80
27671;DHT22;15077;49.704;9.908;2023-07-13T01:33:24;23.50;47.90
27671;DHT22;15077;49.704;9.908;2023-07-13T01:35:52;23.50;47.80
27671;DHT22;15077;49.704;9.908;2023-07-13T01:38:22;23.40;47.80
27671;DHT22;15077;49.704;9.908;2023-07-13T01:40:51;23.40;47.80
27671;DHT22;15077;49.704;9.908;2023-07-13T01:43:22;23.40;47.90
27671;DHT22;15077;49.704;9.908;2023-07-13T01:45:51;23.40;47.80
27671;DHT22;15077;49.704;9.908;2023-07-13T01:48:18;23.30;47.80
27671;DHT22;15077;49.704;9.908;2023-07-13T01:50:47;23.30;47.80
27671;DHT22;15077;49.704;9.908;2023-07-13T01:53:15;23.30;47.90
27671;DHT22;15077;49.704;9.908;2023-07-13T01:55:41;23.30;47.90
27671;DHT22;15077;49.704;9.908;2023-07-13T01:58:08;23.20;47.90
27671;DHT22;15077;49.704;9.908;2023-07-13T02:00:34;23.20;48.50
27671;DHT22;15077;49.704;9.908;2023-07-13T02:02:59;23.20;48.00
27671;DHT22;15077;49.704;9.908;2023-07-13T02:05:25;23.10;48.00
27671;DHT22;15077;49.704;9.908;2023-07-13T02:07:51;23.10;48.00
27671;DHT22;15077;49.704;9.908;2023-07-13T02:10:18;23.10;48.00
27671;DHT22;15077;49.704;9.908;2023-07-13T02:12:45;23.00;48.10
27671;DHT22;15077;49.704;9.908;2023-07-13T02:15:16;23.00;48.10
27671;DHT22;15077;49.704;9.908;2023-07-13T02:17:44;23.00;48.20
27671;DHT22;15077;49.704;9.908;2023-07-13T02:20:12;23.00;48.20
27671;DHT22;15077;49.704;9.908;2023-07-13T02:22:38;22.90;48.10
27671;DHT22;15077;49.704;9.908;2023-07-13T02:25:05;22.90;48.20
27671;DHT22;15077;49.704;9.908;2023-07-13T02:27:31;22.80;48.20
27671;DHT22;15077;49.704;9.908;2023-07-13T02:29:57;22.80;48.20
27671;DHT22;15077;49.704;9.908;2023-07-13T02:32:23;22.70;48.30
27671;DHT22;15077;49.704;9.908;2023-07-13T02:34:51;22.70;48.30
27671;DHT22;15077;49.704;9.908;2023-07-13T02:37:18;22.70;48.40
27671;DHT22;15077;49.704;9.908;2023-07-13T02:39:45;22.70;48.40
27671;DHT22;15077;49.704;9.908;2023-07-13T02:42:13;22.70;48.50
27671;DHT22;15077;49.704;9.908;2023-07-13T02:44:40;22.60;48.50
27671;DHT22;15077;49.704;9.908;2023-07-13T02:47:08;22.60;48.70
27671;DHT22;15077;49.704;9.908;2023-07-13T02:49:34;22.60;48.60
27671;DHT22;15077;49.704;9.908;2023-07-13T02:52:02;22.50;48.60
27671;DHT22;15077;49.704;9.908;2023-07-13T02:54:28;22.50;48.60
27671;DHT22;15077;49.704;9.908;2023-07-13T02:56:54;22.50;48.70
27671;DHT22;15077;49.704;9.908;2023-07-13T02:59:21;22.50;48.70
27671;DHT22;15077;49.704;9.908;2023-07-13T03:01:48;22.50;48.70
27671;DHT22;15077;49.704;9.908;2023-07-13T03:04:14;22.50;48.80
27671;DHT22;15077;49.704;9.908;2023-07-13T03:06:39;22.40;48.70
27671;DHT22;15077;49.704;9.908;2023-07-13T03:09:05;22.40;48.80
27671;DHT22;15077;49.704;9.908;2023-07-13T03:11:31;22.40;48.80
27671;DHT22;15077;49.704;9.908;2023-07-13T03:13:58;22.30;48.80
27671;DHT22;15077;49.704;9.908;2023-07-13T03:16:24;22.30;48.90
27671;DHT22;15077;49.704;9.908;2023-07-13T03:18:51;22.20;48.90
27671;DHT22;15077;49.704;9.908;2023-07-13T03:21:18;22.20;49.00
27671;DHT22;15077;49.704;9.908;2023-07-13T03:23:45;22.20;49.10
27671;DHT22;15077;49.704;9.908;2023-07-13T03:26:17;22.10;49.10
27671;DHT22;15077;49.704;9.908;2023-07-13T03:28:49;22.10;49.20
27671;DHT22;15077;49.704;9.908;2023-07-13T03:31:20;22.10;49.30
27671;DHT22;15077;49.704;9.908;2023-07-13T03:33:49;22.00;49.40
27671;DHT22;15077;49.704;9.908;2023-07-13T03:36:18;22.00;49.40
27671;DHT22;15077;49.704;9.908;2023-07-13T03:38:48;22.00;49.40
27671;DHT22;15077;49.704;9.908;2023-07-13T03:41:21;22.00;49.50
27671;DHT22;15077;49.704;9.908;2023-07-13T03:43:53;21.90;49.50
27671;DHT22;15077;49.704;9.908;2023-07-13T03:46:20;21.90;49.60
27671;DHT22;15077;49.704;9.908;2023-07-13T03:48:47;21.90;49.60
27671;DHT22;15077;49.704;9.908;2023-07-13T03:51:15;21.90;49.70
27671;DHT22;15077;49.704;9.908;2023-07-13T03:53:44;21.80;49.70
27671;DHT22;15077;49.704;9.908;2023-07-13T03:56:16;21.80;49.70
27671;DHT22;15077;49.704;9.908;2023-07-13T03:58:46;21.80;49.90
27671;DHT22;15077;49.704;9.908;2023-07-13T04:01:14;21.80;49.80
27671;DHT22;15077;49.704;9.908;2023-07-13T04:03:42;21.80;49.90
27671;DHT22;15077;49.704;9.908;2023-07-13T04:06:20;21.70;49.90
27671;DHT22;15077;49.704;9.908;2023-07-13T04:08:55;21.70;50.10
27671;DHT22;15077;49.704;9.908;2023-07-13T04:11:26;21.70;50.10
27671;DHT22;15077;49.704;9.908;2023-07-13T04:13:54;21.60;50.10
27671;DHT22;15077;49.704;9.908;2023-07-13T04:16:21;21.60;50.20
27671;DHT22;15077;49.704;9.908;2023-07-13T04:18:47;21.60;50.20
27671;DHT22;15077;49.704;9.908;2023-07-13T04:21:15;21.60;50.40
27671;DHT22;15077;49.704;9.908;2023-07-13T04:23:41;21.60;50.40
27671;DHT22;15077;49.704;9.908;2023-07-13T04:26:07;21.50;50.40
27671;DHT22;15077;49.704;9.908;2023-07-13T04:28:33;21.50;50.50
27671;DHT22;15077;49.704;9.908;2023-07-13T04:31:00;21.50;50.60
27671;DHT22;15077;49.704;9.908;2023-07-13T04:33:27;21.50;50.60
27671;DHT22;15077;49.704;9.908;2023-07-13T04:35:54;21.60;50.80
27671;DHT22;15077;49.704;9.908;2023-07-13T04:38:26;21.50;50.80
27671;DHT22;15077;49.704;9.908;2023-07-13T04:40:58;21.50;50.80
27671;DHT22;15077;49.704;9.908;2023-07-13T04:43:26;21.60;50.80
27671;DHT22;15077;49.704;9.908;2023-07-13T04:45:53;21.50;50.80
27671;DHT22;15077;49.704;9.908;2023-07-13T04:48:20;21.60;50.90
27671;DHT22;15077;49.704;9.908;2023-07-13T04:50:46;21.60;50.90
27671;DHT22;15077;49.704;9.908;2023-07-13T04:53:13;21.60;50.90
27671;DHT22;15077;49.704;9.908;2023-07-13T04:55:39;21.60;50.90
27671;DHT22;15077;49.704;9.908;2023-07-13T04:58:06;21.60;51.00
27671;DHT22;15077;49.704;9.908;2023-07-13T05:00:32;21.60;51.00
27671;DHT22;15077;49.704;9.908;2023-07-13T05:02:58;21.60;51.00
27671;DHT22;15077;49.704;9.908;2023-07-13T05:05:26;21.60;51.00
27671;DHT22;15077;49.704;9.908;2023-07-13T05:07:53;21.60;51.10
27671;DHT22;15077;49.704;9.908;2023-07-13T05:10:19;21.60;51.10
27671;DHT22;15077;49.704;9.908;2023-07-13T05:12:45;21.60;51.10
27671;DHT22;15077;49.704;9.908;2023-07-13T05:15:11;21.60;51.00
27671;DHT22;15077;49.704;9.908;2023-07-13T05:17:37;21.60;51.10
27671;DHT22;15077;49.704;9.908;2023-07-13T05:20:07;21.60;51.10
27671;DHT22;15077;49.704;9.908;2023-07-13T05:22:34;21.60;51.00
27671;DHT22;15077;49.704;9.908;2023-07-13T05:25:03;21.60;51.10
27671;DHT22;15077;49.704;9.908;2023-07-13T05:27:30;21.60;51.70
27671;DHT22;15077;49.704;9.908;2023-07-13T05:29:56;21.70;51.10
27671;DHT22;15077;49.704;9.908;2023-07-13T05:32:22;21.70;51.30
27671;DHT22;15077;49.704;9.908;2023-07-13T05:34:48;21.70;51.20
27671;DHT22;15077;49.704;9.908;2023-07-13T05:37:14;21.70;51.20
27671;DHT22;15077;49.704;9.908;2023-07-13T05:39:39;21.70;51.30
27671;DHT22;15077;49.704;9.908;2023-07-13T05:42:06;21.70;51.30
27671;DHT22;15077;49.704;9.908;2023-07-13T05:44:32;21.80;51.40
27671;DHT22;15077;49.704;9.908;2023-07-13T05:46:57;21.80;51.40
27671;DHT22;15077;49.704;9.908;2023-07-13T05:49:23;21.80;51.40
27671;DHT22;15077;49.704;9.908;2023-07-13T05:51:49;21.80;51.40
27671;DHT22;15077;49.704;9.908;2023-07-13T05:54:15;21.80;51.50
27671;DHT22;15077;49.704;9.908;2023-07-13T05:56:41;21.80;51.60
27671;DHT22;15077;49.704;9.908;2023-07-13T05:59:07;21.80;51.50
27671;DHT22;15077;49.704;9.908;2023-07-13T06:01:33;21.90;51.60
27671;DHT22;15077;49.704;9.908;2023-07-13T06:03:59;21.90;51.60
27671;DHT22;15077;49.704;9.908;2023-07-13T06:06:25;21.90;51.70
27671;DHT22;15077;49.704;9.908;2023-07-13T06:08:50;21.90;51.70
27671;DHT22;15077;49.704;9.908;2023-07-13T06:11:19;21.90;51.80
27671;DHT22;15077;49.704;9.908;2023-07-13T06:13:50;21.90;51.80
27671;DHT22;15077;49.704;9.908;2023-07-13T06:16:16;21.90;51.80
27671;DHT22;15077;49.704;9.908;2023-07-13T06:18:43;22.00;51.80
27671;DHT22;15077;49.704;9.908;2023-07-13T06:21:18;22.00;51.70
27671;DHT22;15077;49.704;9.908;2023-07-13T06:23:46;22.00;51.70
27671;DHT22;15077;49.704;9.908;2023-07-13T06:26:14;22.10;51.80
27671;DHT22;15077;49.704;9.908;2023-07-13T06:28:40;22.00;51.60
27671;DHT22;15077;49.704;9.908;2023-07-13T06:31:07;22.10;51.60
27671;DHT22;15077;49.704;9.908;2023-07-13T06:33:34;22.10;51.70
27671;DHT22;15077;49.704;9.908;2023-07-13T06:36:02;22.10;52.30
27671;DHT22;15077;49.704;9.908;2023-07-13T06:38:29;22.20;51.70
27671;DHT22;15077;49.704;9.908;2023-07-13T06:40:55;22.20;51.70
27671;DHT22;15077;49.704;9.908;2023-07-13T06:43:20;22.20;51.70
27671;DHT22;15077;49.704;9.908;2023-07-13T06:45:47;22.30;51.50
27671;DHT22;15077;49.704;9.908;2023-07-13T06:48:15;22.30;51.40
27671;DHT22;15077;49.704;9.908;2023-07-13T06:50:43;22.30;51.30
27671;DHT22;15077;49.704;9.908;2023-07-13T06:53:10;22.30;51.40
27671;DHT22;15077;49.704;9.908;2023-07-13T06:55:37;22.40;51.40
27671;DHT22;15077;49.704;9.908;2023-07-13T06:58:03;22.30;51.30
27671;DHT22;15077;49.704;9.908;2023-07-13T07:00:29;22.40;51.30
27671;DHT22;15077;49.704;9.908;2023-07-13T07:02:55;22.50;51.10
27671;DHT22;15077;49.704;9.908;2023-07-13T07:05:21;22.40;50.90
27671;DHT22;15077;49.704;9.908;2023-07-13T07:07:51;22.50;50.80
27671;DHT22;15077;49.704;9.908;2023-07-13T07:10:19;22.50;50.70
27671;DHT22;15077;49.704;9.908;2023-07-13T07:12:46;22.60;50.90
27671;DHT22;15077;49.704;9.908;2023-07-13T07:15:12;22.60;50.80
27671;DHT22;15077;49.704;9.908;2023-07-13T07:17:38;22.60;50.70
27671;DHT22;15077;49.704;9.908;2023-07-13T07:20:05;22.60;50.70
27671;DHT22;15077;49.704;9.908;2023-07-13T07:22:31;22.60;50.60
27671;DHT22;15077;49.704;9.908;2023-07-13T07:24:57;22.70;50.50
27671;DHT22;15077;49.704;9.908;2023-07-13T07:27:24;22.70;50.50
27671;DHT22;15077;49.704;9.908;2023-07-13T07:29:50;22.70;50.20
27671;DHT22;15077;49.704;9.908;2023-07-13T07:32:16;22.80;50.30
27671;DHT22;15077;49.704;9.908;2023-07-13T07:34:42;22.80;50.00
27671;DHT22;15077;49.704;9.908;2023-07-13T07:37:12;22.90;49.60
27671;DHT22;15077;49.704;9.908;2023-07-13T07:39:39;22.90;49.50
27671;DHT22;15077;49.704;9.908;2023-07-13T07:42:05;23.00;49.30
27671;DHT22;15077;49.704;9.908;2023-07-13T07:44:32;23.00;49.30
27671;DHT22;15077;49.704;9.908;2023-07-13T07:46:59;23.10;49.30
27671;DHT22;15077;49.704;9.908;2023-07-13T07:49:25;23.10;49.00
27671;DHT22;15077;49.704;9.908;2023-07-13T07:51:51;23.20;49.10
27671;DHT22;15077;49.704;9.908;2023-07-13T07:54:17;23.20;48.70
27671;DHT22;15077;49.704;9.908;2023-07-13T07:56:42;23.30;48.70
27671;DHT22;15077;49.704;9.908;2023-07-13T07:59:08;23.40;49.40
27671;DHT22;15077;49.704;9.908;2023-07-13T08:01:34;23.40;48.50
27671;DHT22;15077;49.704;9.908;2023-07-13T08:04:00;23.50;48.50
27671;DHT22;15077;49.704;9.908;2023-07-13T08:06:27;23.50;48.50
27671;DHT22;15077;49.704;9.908;2023-07-13T08:08:53;23.60;48.30
27671;DHT22;15077;49.704;9.908;2023-07-13T08:11:20;23.70;48.20
27671;DHT22;15077;49.704;9.908;2023-07-13T08:13:47;23.70;47.50
27671;DHT22;15077;49.704;9.908;2023-07-13T08:16:14;23.80;47.70
27671;DHT22;15077;49.704;9.908;2023-07-13T08:18:40;23.80;47.60
27671;DHT22;15077;49.704;9.908;2023-07-13T08:21:07;23.90;47.50
27671;DHT22;15077;49.704;9.908;2023-07-13T08:23:34;23.90;47.10
27671;DHT22;15077;49.704;9.908;2023-07-13T08:26:01;24.00;46.80
27671;DHT22;15077;49.704;9.908;2023-07-13T08:28:28;24.10;46.60
27671;DHT22;15077;49.704;9.908;2023-07-13T08:30:54;24.20;46.40
27671;DHT22;15077;49.704;9.908;2023-07-13T08:33:22;24.20;46.40
27671;DHT22;15077;49.704;9.908;2023-07-13T08:35:51;24.30;46.10
27671;DHT22;15077;49.704;9.908;2023-07-13T08:38:17;24.40;46.00
27671;DHT22;15077;49.704;9.908;2023-07-13T08:40:45;24.50;45.60
27671;DHT22;15077;49.704;9.908;2023-07-13T08:43:19;24.50;46.00
27671;DHT22;15077;49.704;9.908;2023-07-13T08:45:53;24.60;45.90
27671;DHT22;15077;49.704;9.908;2023-07-13T08:48:46;24.70;45.90
27671;DHT22;15077;49.704;9.908;2023-07-13T08:51:20;24.80;46.80
27671;DHT22;15077;49.704;9.908;2023-07-13T08:54:01;24.90;45.70
27671;DHT22;15077;49.704;9.908;2023-07-13T08:56:31;25.00;45.50
27671;DHT22;15077;49.704;9.908;2023-07-13T08:59:11;25.10;45.60
27671;DHT22;15077;49.704;9.908;2023-07-13T09:05:56;25.30;45.10
27671;DHT22;15077;49.704;9.908;2023-07-13T09:11:42;25.50;45.00
27671;DHT22;15077;49.704;9.908;2023-07-13T09:14:53;25.60;45.20
27671;DHT22;15077;49.704;9.908;2023-07-13T09:17:27;25.70;44.80
27671;DHT22;15077;49.704;9.908;2023-07-13T09:20:02;25.80;44.70
27671;DHT22;15077;49.704;9.908;2023-07-13T09:22:36;25.80;43.90
27671;DHT22;15077;49.704;9.908;2023-07-13T09:25:18;25.90;44.20
27671;DHT22;15077;49.704;9.908;2023-07-13T09:28:01;25.90;44.10
27671;DHT22;15077;49.704;9.908;2023-07-13T09:30:46;26.00;43.90
27671;DHT22;15077;49.704;9.908;2023-07-13T09:33:15;26.10;43.70
27671;DHT22;15077;49.704;9.908;2023-07-13T09:35:40;26.20;43.70
27671;DHT22;15077;49.704;9.908;2023-07-13T09:38:14;26.20;43.40
27671;DHT22;15077;49.704;9.908;2023-07-13T09:43:36;26.30;43.90
27671;DHT22;15077;49.704;9.908;2023-07-13T09:46:02;26.40;43.60
27671;DHT22;15077;49.704;9.908;2023-07-13T09:48:34;26.40;43.10
27671;DHT22;15077;49.704;9.908;2023-07-13T09:51:14;26.50;43.20
27671;DHT22;15077;49.704;9.908;2023-07-13T09:53:42;26.50;43.20
27671;DHT22;15077;49.704;9.908;2023-07-13T09:56:27;26.60;43.40
27671;DHT22;15077;49.704;9.908;2023-07-13T09:58:55;26.60;43.00
27671;DHT22;15077;49.704;9.908;2023-07-13T10:01:36;26.60;42.80
27671;DHT22;15077;49.704;9.908;2023-07-13T10:04:14;26.60;43.20
27671;DHT22;15077;49.704;9.908;2023-07-13T10:06:44;26.70;43.20
27671;DHT22;15077;49.704;9.908;2023-07-13T10:09:16;26.70;43.00
27671;DHT22;15077;49.704;9.908;2023-07-13T10:11:43;26.80;43.30
27671;DHT22;15077;49.704;9.908;2023-07-13T10:14:14;26.90;43.30
27671;DHT22;15077;49.704;9.908;2023-07-13T10:16:45;26.90;43.10
27671;DHT22;15077;49.704;9.908;2023-07-13T10:19:26;27.00;42.80
27671;DHT22;15077;49.704;9.908;2023-07-13T10:21:59;27.10;42.60
27671;DHT22;15077;49.704;9.908;2023-07-13T10:24:29;27.10;42.60
27671;DHT22;15077;49.704;9.908;2023-07-13T10:27:23;27.10;42.80
27671;DHT22;15077;49.704;9.908;2023-07-13T10:30:14;27.20;42.50
27671;DHT22;15077;49.704;9.908;2023-07-13T10:32:46;27.20;42.30
27671;DHT22;15077;49.704;9.908;2023-07-13T10:35:15;27.20;42.00
27671;DHT22;15077;49.704;9.908;2023-07-13T10:37:54;27.10;42.00
27671;DHT22;15077;49.704;9.908;2023-07-13T10:40:39;27.20;42.50
27671;DHT22;15077;49.704;9.908;2023-07-13T10:43:18;27.20;42.20
27671;DHT22;15077;49.704;9.908;2023-07-13T10:45:49;27.30;42.30
27671;DHT22;15077;49.704;9.908;2023-07-13T10:48:17;27.40;42.20
27671;DHT22;15077;49.704;9.908;2023-07-13T10:50:46;27.40;42.00
27671;DHT22;15077;49.704;9.908;2023-07-13T10:53:32;27.50;42.00
27671;DHT22;15077;49.704;9.908;2023-07-13T10:59:25;27.60;41.10
27671;DHT22;15077;49.704;9.908;2023-07-13T11:01:57;27.60;41.30
27671;DHT22;15077;49.704;9.908;2023-07-13T11:04:44;27.70;40.70
27671;DHT22;15077;49.704;9.908;2023-07-13T11:07:25;27.70;40.20
27671;DHT22;15077;49.704;9.908;2023-07-13T11:09:55;27.70;41.10
27671;DHT22;15077;49.704;9.908;2023-07-13T11:12:26;27.70;40.80
27671;DHT22;15077;49.704;9.908;2023-07-13T11:17:35;27.90;40.90
27671;DHT22;15077;49.704;9.908;2023-07-13T11:25:43;28.00;40.70
27671;DHT22;15077;49.704;9.908;2023-07-13T11:30:41;28.10;39.50
27671;DHT22;15077;49.704;9.908;2023-07-13T11:36:14;28.10;38.90
27671;DHT22;15077;49.704;9.908;2023-07-13T11:38:48;28.10;39.10
27671;DHT22;15077;49.704;9.908;2023-07-13T11:41:25;28.10;40.20
27671;DHT22;15077;49.704;9.908;2023-07-13T11:44:01;28.10;39.40
27671;DHT22;15077;49.704;9.908;2023-07-13T11:46:31;28.10;39.30
27671;DHT22;15077;49.704;9.908;2023-07-13T11:48:56;28.10;38.90
27671;DHT22;15077;49.704;9.908;2023-07-13T11:51:29;28.10;39.20
27671;DHT22;15077;49.704;9.908;2023-07-13T11:54:05;28.00;39.60
27671;DHT22;15077;49.704;9.908;2023-07-13T11:56:38;28.00;38.40
27671;DHT22;15077;49.704;9.908;2023-07-13T11:59:07;28.00;38.70
27671;DHT22;15077;49.704;9.908;2023-07-13T12:01:35;27.90;39.20
27671;DHT22;15077;49.704;9.908;2023-07-13T12:04:43;27.90;39.10
27671;DHT22;15077;49.704;9.908;2023-07-13T12:07:15;27.90;39.40
27671;DHT22;15077;49.704;9.908;2023-07-13T12:09:42;27.90;39.30
27671;DHT22;15077;49.704;9.908;2023-07-13T12:12:18;27.90;38.90
27671;DHT22;15077;49.704;9.908;2023-07-13T12:14:46;27.80;38.90
27671;DHT22;15077;49.704;9.908;2023-07-13T12:17:23;27.80;39.10
27671;DHT22;15077;49.704;9.908;2023-07-13T12:19:53;27.80;39.10
27671;DHT22;15077;49.704;9.908;2023-07-13T12:22:20;27.70;39.30
27671;DHT22;15077;49.704;9.908;2023-07-13T12:24:47;27.70;39.20
27671;DHT22;15077;49.704;9.908;2023-07-13T12:27:25;27.70;39.50
27671;DHT22;15077;49.704;9.908;2023-07-13T12:29:59;27.80;39.70
27671;DHT22;15077;49.704;9.908;2023-07-13T12:32:31;27.80;39.50
27671;DHT22;15077;49.704;9.908;2023-07-13T12:35:13;27.80;39.70
27671;DHT22;15077;49.704;9.908;2023-07-13T12:37:45;27.80;39.70
27671;DHT22;15077;49.704;9.908;2023-07-13T12:40:20;27.90;39.70
27671;DHT22;15077;49.704;9.908;2023-07-13T12:42:52;27.90;40.00
27671;DHT22;15077;49.704;9.908;2023-07-13T12:45:24;27.90;39.80
27671;DHT22;15077;49.704;9.908;2023-07-13T12:47:58;27.90;40.30
27671;DHT22;15077;49.704;9.908;2023-07-13T12:50:42;27.90;40.00
27671;DHT22;15077;49.704;9.908;2023-07-13T12:53:16;28.00;39.80
27671;DHT22;15077;49.704;9.908;2023-07-13T12:55:53;28.10;39.60
27671;DHT22;15077;49.704;9.908;2023-07-13T12:58:40;28.10;39.80
27671;DHT22;15077;49.704;9.908;2023-07-13T13:01:10;28.10;39.10
27671;DHT22;15077;49.704;9.908;2023-07-13T13:03:52;28.10;39.30
27671;DHT22;15077;49.704;9.908;2023-07-13T13:06:27;28.20;39.40
27671;DHT22;15077;49.704;9.908;2023-07-13T13:08:57;28.20;39.70
27671;DHT22;15077;49.704;9.908;2023-07-13T13:11:26;28.20;38.90
27671;DHT22;15077;49.704;9.908;2023-07-13T13:13:54;28.20;38.10
27671;DHT22;15077;49.704;9.908;2023-07-13T13:19:13;28.20;38.60
27671;DHT22;15077;49.704;9.908;2023-07-13T13:21:43;28.20;38.70
27671;DHT22;15077;49.704;9.908;2023-07-13T13:24:15;28.20;38.90
27671;DHT22;15077;49.704;9.908;2023-07-13T13:26:44;28.20;38.80
27671;DHT22;15077;49.704;9.908;2023-07-13T13:29:21;28.20;38.70
27671;DHT22;15077;49.704;9.908;2023-07-13T13:31:52;28.20;38.80
27671;DHT22;15077;49.704;9.908;2023-07-13T13:34:20;28.30;38.90
27671;DHT22;15077;49.704;9.908;2023-07-13T13:36:49;28.30;38.80
27671;DHT22;15077;49.704;9.908;2023-07-13T13:39:25;28.30;38.90
27671;DHT22;15077;49.704;9.908;2023-07-13T13:41:56;28.30;39.00
27671;DHT22;15077;49.704;9.908;2023-07-13T13:44:22;28.20;39.10
27671;DHT22;15077;49.704;9.908;2023-07-13T13:46:52;28.30;39.30
27671;DHT22;15077;49.704;9.908;2023-07-13T13:49:24;28.30;39.40
27671;DHT22;15077;49.704;9.908;2023-07-13T13:51:53;28.40;38.80
27671;DHT22;15077;49.704;9.908;2023-07-13T13:54:20;28.40;38.20
27671;DHT22;15077;49.704;9.908;2023-07-13T13:56:49;28.40;38.30
27671;DHT22;15077;49.704;9.908;2023-07-13T13:59:16;28.40;37.90
27671;DHT22;15077;49.704;9.908;2023-07-13T14:01:45;28.50;37.70
27671;DHT22;15077;49.704;9.908;2023-07-13T14:04:18;28.50;38.10
27671;DHT22;15077;49.704;9.908;2023-07-13T14:06:47;28.50;38.10
27671;DHT22;15077;49.704;9.908;2023-07-13T14:09:18;28.50;38.10
27671;DHT22;15077;49.704;9.908;2023-07-13T14:11:46;28.50;38.30
27671;DHT22;15077;49.704;9.908;2023-07-13T14:14:19;28.50;38.00
27671;DHT22;15077;49.704;9.908;2023-07-13T14:16:47;28.50;38.10
27671;DHT22;15077;49.704;9.908;2023-07-13T14:19:19;28.50;37.70
27671;DHT22;15077;49.704;9.908;2023-07-13T14:21:46;28.50;37.80
27671;DHT22;15077;49.704;9.908;2023-07-13T14:24:13;28.60;37.90
27671;DHT22;15077;49.704;9.908;2023-07-13T14:26:40;28.50;38.00
27671;DHT22;15077;49.704;9.908;2023-07-13T14:29:15;28.50;37.90
27671;DHT22;15077;49.704;9.908;2023-07-13T14:31:43;28.50;37.50
27671;DHT22;15077;49.704;9.908;2023-07-13T14:34:13;28.50;37.40
27671;DHT22;15077;49.704;9.908;2023-07-13T14:36:44;28.50;37.30
27671;DHT22;15077;49.704;9.908;2023-07-13T14:39:17;28.40;37.60
27671;DHT22;15077;49.704;9.908;2023-07-13T14:41:45;28.40;37.70
27671;DHT22;15077;49.704;9.908;2023-07-13T14:44:16;28.40;37.80
27671;DHT22;15077;49.704;9.908;2023-07-13T14:46:49;28.40;37.40
27671;DHT22;15077;49.704;9.908;2023-07-13T14:52:21;28.40;38.60
27671;DHT22;15077;49.704;9.908;2023-07-13T14:54:49;28.40;37.90
27671;DHT22;15077;49.704;9.908;2023-07-13T14:57:19;28.40;37.80
27671;DHT22;15077;49.704;9.908;2023-07-13T14:59:46;28.50;37.90
27671;DHT22;15077;49.704;9.908;2023-07-13T15:02:19;28.60;37.50
27671;DHT22;15077;49.704;9.908;2023-07-13T15:04:56;28.60;37.20
27671;DHT22;15077;49.704;9.908;2023-07-13T15:07:22;28.70;37.60
27671;DHT22;15077;49.704;9.908;2023-07-13T15:09:50;28.70;37.70
27671;DHT22;15077;49.704;9.908;2023-07-13T15:12:16;28.80;36.90
27671;DHT22;15077;49.704;9.908;2023-07-13T15:14:42;28.80;36.70
27671;DHT22;15077;49.704;9.908;2023-07-13T15:17:33;28.90;36.40
27671;DHT22;15077;49.704;9.908;2023-07-13T15:20:06;28.90;36.80
27671;DHT22;15077;49.704;9.908;2023-07-13T15:22:44;28.90;36.70
27671;DHT22;15077;49.704;9.908;2023-07-13T15:25:20;28.90;36.70
27671;DHT22;15077;49.704;9.908;2023-07-13T15:27:53;28.90;36.70
27671;DHT22;15077;49.704;9.908;2023-07-13T15:30:21;28.90;36.50
27671;DHT22;15077;49.704;9.908;2023-07-13T15:32:47;28.90;37.10
27671;DHT22;15077;49.704;9.908;2023-07-13T15:35:22;28.90;36.30
27671;DHT22;15077;49.704;9.908;2023-07-13T15:37:50;28.90;36.40
27671;DHT22;15077;49.704;9.908;2023-07-13T15:40:17;29.00;36.30
27671;DHT22;15077;49.704;9.908;2023-07-13T15:42:45;29.00;35.80
27671;DHT22;15077;49.704;9.908;2023-07-13T15:45:15;29.00;35.70
27671;DHT22;15077;49.704;9.908;2023-07-13T15:47:49;29.00;35.80
27671;DHT22;15077;49.704;9.908;2023-07-13T15:50:20;29.00;35.80
27671;DHT22;15077;49.704;9.908;2023-07-13T15:52:51;29.00;36.30
27671;DHT22;15077;49.704;9.908;2023-07-13T15:55:21;29.00;36.10
27671;DHT22;15077;49.704;9.908;2023-07-13T15:57:49;29.10;35.80
27671;DHT22;15077;49.704;9.908;2023-07-13T16:00:25;29.10;35.60
27671;DHT22;15077;49.704;9.908;2023-07-13T16:02:54;29.00;35.50
27671;DHT22;15077;49.704;9.908;2023-07-13T16:05:21;29.00;35.60
27671;DHT22;15077;49.704;9.908;2023-07-13T16:07:50;28.90;35.60
27671;DHT22;15077;49.704;9.908;2023-07-13T16:10:36;28.80;35.70
27671;DHT22;15077;49.704;9.908;2023-07-13T16:13:15;28.80;36.10
27671;DHT22;15077;49.704;9.908;2023-07-13T16:15:42;28.80;36.20
27671;DHT22;15077;49.704;9.908;2023-07-13T16:18:10;28.80;36.10
27671;DHT22;15077;49.704;9.908;2023-07-13T16:20:38;28.80;36.20
27671;DHT22;15077;49.704;9.908;2023-07-13T16:23:05;28.80;36.20